Time;durP1;ratioP1;P1;durP2;ratioP2;P2;SDS_P1;SDS_P2;PMS_P1;PMS_P2;Temp;Humidity;BMP_temperature;BMP_pressure;BME280_temperature;BME280_humidity;BME280_pressure;Samples;Min_cycle;Max_cycle;Signal;HPM_P1;HPM_P2
2022/01/21 00:01:37;;;;;;;10.68;2.60;;;1.60;99.90;;;;;;4972202;28;20049;-64
2022/01/21 00:04:03;;;;;;;13.52;2.95;;;1.60;99.90;;;;;;4971998;28;20042;-64
2022/01/21 00:06:29;;;;;;;13.18;2.83;;;1.60;99.90;;;;;;4972281;28;20046;-64
2022/01/21 00:08:55;;;;;;;17.88;2.70;;;1.50;99.90;;;;;;4972108;28;20039;-64
2022/01/21 00:11:22;;;;;;;17.45;3.72;;;1.50;99.90;;;;;;4972101;28;20493;-64
2022/01/21 00:13:48;;;;;;;19.15;2.80;;;1.50;99.90;;;;;;4986876;28;20043;-64
2022/01/21 00:16:16;;;;;;;15.32;3.60;;;1.50;99.90;;;;;;4954688;28;20058;-64
2022/01/21 00:18:51;;;;;;;12.20;2.75;;;1.50;99.90;;;;;;4972070;28;20126;-64
2022/01/21 00:32:14;;;;;;;16.50;2.90;;;1.60;99.90;;;;;;4984030;28;20113;-64
2022/01/21 00:34:39;;;;;;;14.13;2.53;;;1.60;99.90;;;;;;5006034;28;20047;-64
2022/01/21 00:37:05;;;;;;;19.88;3.10;;;1.70;99.90;;;;;;4991134;28;20050;-64
2022/01/21 00:39:33;;;;;;;18.48;2.97;;;1.70;99.90;;;;;;4989462;28;20046;-64
2022/01/21 00:42:04;;;;;;;16.20;2.72;;;1.80;99.90;;;;;;4973510;28;20041;-64
2022/01/21 00:44:29;;;;;;;16.83;2.78;;;1.80;99.90;;;;;;4990764;28;20047;-64
2022/01/21 00:46:55;;;;;;;11.73;2.80;;;1.90;99.90;;;;;;4990628;28;20084;-64
2022/01/21 00:49:20;;;;;;;15.85;3.03;;;1.90;99.90;;;;;;4990715;28;20042;-64
2022/01/21 00:51:46;;;;;;;16.95;2.80;;;2.00;99.90;;;;;;4973598;28;20096;-64
2022/01/21 00:54:12;;;;;;;17.23;2.72;;;2.00;99.90;;;;;;4986221;28;20533;-64
2022/01/21 00:56:38;;;;;;;20.08;3.25;;;2.00;99.90;;;;;;4971459;28;20051;-64
2022/01/21 00:59:04;;;;;;;14.52;3.50;;;2.00;99.90;;;;;;4971546;28;20038;-64
2022/01/21 01:01:29;;;;;;;16.17;2.92;;;2.10;99.90;;;;;;4971372;28;20045;-64
2022/01/21 01:03:55;;;;;;;11.30;2.10;;;2.10;99.90;;;;;;4953599;28;20485;-64
2022/01/21 01:06:21;;;;;;;22.35;3.28;;;2.10;99.90;;;;;;4971215;28;20120;-64
2022/01/21 01:08:49;;;;;;;16.30;3.08;;;2.10;99.90;;;;;;4956159;28;20062;-64
2022/01/21 01:11:21;;;;;;;15.02;2.90;;;2.10;99.90;;;;;;4990745;28;20042;-64
2022/01/21 01:21:59;;;;;;;12.80;2.17;;;2.10;99.90;;;;;;4990061;28;20064;-64
2022/01/21 01:29:54;;;;;;;16.95;2.83;;;2.10;99.90;;;;;;4990569;28;20080;-64
2022/01/21 01:32:20;;;;;;;11.57;2.88;;;2.10;99.90;;;;;;4975140;28;20493;-64
2022/01/21 01:34:45;;;;;;;12.00;2.65;;;2.10;99.90;;;;;;4970748;28;20051;-64
2022/01/21 01:37:22;;;;;;;10.77;1.92;;;2.00;99.90;;;;;;4974853;28;20049;-64
2022/01/21 01:39:59;;;;;;;9.57;2.50;;;2.00;99.90;;;;;;4989283;28;20093;-64
2022/01/21 01:50:35;;;;;;;12.93;1.90;;;2.10;99.90;;;;;;4990267;28;20053;-64
2022/01/21 01:53:01;;;;;;;9.77;2.25;;;2.10;99.90;;;;;;4960602;28;20408;-64
2022/01/21 01:55:27;;;;;;;14.05;2.47;;;2.20;99.90;;;;;;4972910;28;20046;-64
2022/01/21 01:57:53;;;;;;;6.25;2.00;;;2.20;99.90;;;;;;4990012;28;20508;-64
2022/01/21 02:00:19;;;;;;;11.48;1.90;;;2.20;99.90;;;;;;4990059;28;20700;-64
2022/01/21 02:02:44;;;;;;;15.20;2.28;;;2.20;99.90;;;;;;4972700;28;20038;-64
2022/01/21 02:05:10;;;;;;;13.57;2.13;;;2.20;99.90;;;;;;4989978;28;20046;-64
2022/01/21 02:07:36;;;;;;;11.10;1.77;;;2.30;99.90;;;;;;4973463;28;20050;-64
2022/01/21 02:10:02;;;;;;;11.38;2.17;;;2.30;99.90;;;;;;4988922;28;20069;-64
2022/01/21 02:12:27;;;;;;;14.45;2.90;;;2.30;99.90;;;;;;4990000;28;20038;-64
2022/01/21 02:14:54;;;;;;;10.50;1.80;;;2.30;99.90;;;;;;4966661;28;20030;-64
2022/01/21 02:22:44;;;;;;;12.35;2.35;;;2.40;99.90;;;;;;4988503;28;20197;-64
2022/01/21 02:25:16;;;;;;;9.32;1.92;;;2.50;99.90;;;;;;4989667;28;20203;-64
2022/01/21 02:27:43;;;;;;;7.65;1.70;;;2.50;99.90;;;;;;4999760;28;20046;-64
2022/01/21 02:30:17;;;;;;;11.07;2.10;;;2.40;99.90;;;;;;4989818;28;20512;-64
2022/01/21 02:32:44;;;;;;;14.40;2.08;;;2.50;99.90;;;;;;4989826;28;20035;-64
2022/01/21 02:35:10;;;;;;;8.13;2.13;;;2.50;99.90;;;;;;4976014;28;20046;-64
2022/01/21 02:37:36;;;;;;;12.48;1.65;;;2.40;99.90;;;;;;4975333;28;20535;-64
2022/01/21 02:40:02;;;;;;;8.88;1.80;;;2.40;99.90;;;;;;4993099;28;20039;-64
2022/01/21 02:42:28;;;;;;;8.52;1.75;;;2.40;99.90;;;;;;4993061;28;20569;-64
2022/01/21 02:44:54;;;;;;;5.35;1.42;;;2.40;99.90;;;;;;4993215;28;20042;-64
2022/01/21 02:47:19;;;;;;;9.40;1.90;;;2.40;99.90;;;;;;4966122;28;20047;-64
2022/01/21 02:49:45;;;;;;;10.95;1.77;;;2.50;99.90;;;;;;4973649;28;20493;-64
2022/01/21 02:52:11;;;;;;;11.75;1.73;;;2.50;99.90;;;;;;4956211;28;20385;-64
2022/01/21 02:54:37;;;;;;;7.57;1.58;;;2.60;99.90;;;;;;4965057;28;20083;-64
2022/01/21 02:57:04;;;;;;;6.97;1.42;;;2.60;99.90;;;;;;4993064;28;20089;-64
2022/01/21 02:59:30;;;;;;;12.98;1.38;;;2.60;99.90;;;;;;4992877;28;20531;-64
2022/01/21 03:01:57;;;;;;;17.00;2.33;;;2.60;99.90;;;;;;4992940;28;20039;-64
2022/01/21 03:04:32;;;;;;;12.07;2.53;;;2.60;99.90;;;;;;4992697;28;20049;-64
2022/01/21 03:06:58;;;;;;;12.65;1.70;;;2.60;99.90;;;;;;4992646;28;20057;-64
2022/01/21 03:09:23;;;;;;;9.68;1.60;;;2.60;99.90;;;;;;4992844;28;20046;-64
2022/01/21 03:11:49;;;;;;;10.13;1.83;;;2.50;99.90;;;;;;4990991;28;20049;-64
2022/01/21 03:14:14;;;;;;;8.60;1.63;;;2.50;99.90;;;;;;4992563;28;20034;-64
2022/01/21 03:16:40;;;;;;;6.82;1.65;;;2.50;99.90;;;;;;4975494;28;20042;-65
2022/01/21 03:19:05;;;;;;;12.63;1.60;;;2.40;99.90;;;;;;4992230;28;20425;-64
2022/01/21 03:21:31;;;;;;;10.23;2.10;;;2.40;99.90;;;;;;4992330;28;20670;-64
2022/01/21 03:23:56;;;;;;;9.05;1.73;;;2.30;99.90;;;;;;4992529;28;20074;-64
2022/01/21 03:26:26;;;;;;;8.02;1.70;;;2.30;99.90;;;;;;4973336;28;20046;-64
2022/01/21 03:28:56;;;;;;;13.43;1.70;;;2.20;99.90;;;;;;4992532;28;20611;-64
2022/01/21 03:31:22;;;;;;;8.95;1.58;;;2.20;99.90;;;;;;5007284;28;20050;-64
2022/01/21 03:33:48;;;;;;;12.15;2.47;;;2.20;99.90;;;;;;4974577;28;20097;-64
2022/01/21 03:36:14;;;;;;;7.10;1.73;;;2.20;99.90;;;;;;5007246;28;20149;-63
2022/01/21 03:38:40;;;;;;;10.68;1.90;;;2.20;99.90;;;;;;4992445;28;20126;-64
2022/01/21 03:41:06;;;;;;;9.63;1.73;;;2.20;99.90;;;;;;4974039;28;20499;-64
2022/01/21 03:43:32;;;;;;;11.40;2.42;;;2.20;99.90;;;;;;4974591;28;20049;-64
2022/01/21 03:45:57;;;;;;;10.48;2.08;;;2.20;99.90;;;;;;4974422;28;20038;-64
2022/01/21 03:48:23;;;;;;;14.40;1.90;;;2.20;99.90;;;;;;4992141;28;20126;-64
2022/01/21 03:50:49;;;;;;;9.23;2.00;;;2.20;99.90;;;;;;4974700;28;20194;-64
2022/01/21 03:53:15;;;;;;;14.73;1.70;;;2.20;99.90;;;;;;4991684;28;20440;-64
2022/01/21 03:55:41;;;;;;;9.27;1.98;;;2.20;99.90;;;;;;4980194;28;20030;-64
2022/01/21 03:58:08;;;;;;;9.52;1.40;;;2.10;99.90;;;;;;4972515;28;20046;-64
2022/01/21 04:00:42;;;;;;;13.20;2.35;;;2.10;99.90;;;;;;4954991;28;20062;-64
2022/01/21 04:03:07;;;;;;;10.10;2.08;;;2.10;99.90;;;;;;4987111;28;20611;-64
2022/01/21 04:05:34;;;;;;;8.30;1.70;;;2.00;99.90;;;;;;4972143;28;20038;-64
2022/01/21 04:08:01;;;;;;;12.90;1.70;;;2.00;99.90;;;;;;4954957;28;20050;-64
2022/01/21 04:10:27;;;;;;;5.03;1.40;;;2.00;99.90;;;;;;4972331;28;20457;-64
2022/01/21 04:12:52;;;;;;;10.70;2.22;;;1.90;99.90;;;;;;4991097;28;20497;-64
2022/01/21 04:15:18;;;;;;;7.93;1.52;;;1.90;99.90;;;;;;4991363;28;20047;-64
2022/01/21 04:17:44;;;;;;;11.63;1.95;;;1.90;99.90;;;;;;4974055;28;20092;-64
2022/01/21 04:20:11;;;;;;;9.30;1.95;;;1.90;99.90;;;;;;4991539;28;20065;-64
2022/01/21 04:22:37;;;;;;;10.50;1.70;;;1.90;99.90;;;;;;5006249;28;20042;-64
2022/01/21 04:25:04;;;;;;;7.43;1.77;;;1.90;99.90;;;;;;4989972;28;20042;-64
2022/01/21 04:27:30;;;;;;;11.57;1.80;;;2.00;99.90;;;;;;4989658;28;20081;-64
2022/01/21 04:29:55;;;;;;;9.18;1.60;;;2.00;99.90;;;;;;4991422;28;20038;-64
2022/01/21 04:32:21;;;;;;;8.25;1.40;;;1.90;99.90;;;;;;4973715;28;20557;-64
2022/01/21 04:34:47;;;;;;;11.88;1.90;;;1.90;99.90;;;;;;4985650;28;20038;-64
2022/01/21 04:37:14;;;;;;;11.57;1.60;;;1.90;99.90;;;;;;4954341;28;20053;-64
2022/01/21 04:39:48;;;;;;;15.30;1.73;;;1.90;99.90;;;;;;4971587;28;20078;-64
2022/01/21 04:47:40;;;;;;;11.10;1.63;;;1.80;99.90;;;;;;4972670;28;20108;-64
2022/01/21 04:50:13;;;;;;;17.13;2.22;;;1.70;99.90;;;;;;4971865;28;20298;-64
2022/01/21 04:52:41;;;;;;;8.20;2.80;;;1.70;99.90;;;;;;4954090;28;20050;-64
2022/01/21 04:55:07;;;;;;;9.93;2.10;;;1.70;99.90;;;;;;4971140;28;20388;-64
2022/01/21 04:57:33;;;;;;;9.93;2.90;;;1.70;99.90;;;;;;4970870;28;20039;-64
2022/01/21 04:59:59;;;;;;;13.95;2.10;;;1.60;99.90;;;;;;4953974;28;20092;-64
2022/01/21 05:02:26;;;;;;;12.40;2.25;;;1.70;99.90;;;;;;4971685;28;20035;-64
2022/01/21 05:04:52;;;;;;;11.85;2.20;;;1.60;99.90;;;;;;4971309;28;20570;-64
2022/01/21 05:07:22;;;;;;;10.82;1.92;;;1.60;99.90;;;;;;5026800;23;20050;-65
2022/01/21 05:09:47;;;;;;;12.38;2.42;;;1.50;99.90;;;;;;4975921;28;20731;-66
2022/01/21 05:12:18;;;;;;;12.68;2.08;;;1.50;99.90;;;;;;5010156;28;20104;-64
2022/01/21 05:15:11;;;;;;;16.27;2.47;;;1.40;99.90;;;;;;5010348;28;20551;-65
2022/01/21 05:17:44;;;;;;;9.18;2.15;;;1.40;99.90;;;;;;4990619;28;20038;-65
2022/01/21 05:20:10;;;;;;;16.33;2.75;;;1.50;99.90;;;;;;4990339;28;20109;-65
2022/01/21 05:22:36;;;;;;;7.20;1.90;;;1.50;99.90;;;;;;4990336;28;20074;-66
2022/01/21 05:25:02;;;;;;;10.63;2.03;;;1.60;99.90;;;;;;4990542;28;20531;-65
2022/01/21 05:27:28;;;;;;;13.48;2.20;;;1.60;99.90;;;;;;4989090;28;20046;-65
2022/01/21 05:29:53;;;;;;;10.40;1.92;;;1.70;99.90;;;;;;4990250;28;20112;-66
2022/01/21 05:32:19;;;;;;;11.35;2.70;;;1.70;99.90;;;;;;4973162;28;20417;-66
2022/01/21 05:34:44;;;;;;;16.10;2.53;;;1.70;99.90;;;;;;4972774;28;20046;-66
2022/01/21 05:37:10;;;;;;;5.93;1.85;;;1.70;99.90;;;;;;4990538;28;20046;-66
2022/01/21 05:39:36;;;;;;;11.85;1.95;;;1.70;99.90;;;;;;4990101;28;20045;-65
2022/01/21 05:42:03;;;;;;;9.40;2.55;;;1.70;99.90;;;;;;4972926;28;20042;-66
2022/01/21 05:46:59;;;;;;;13.13;2.67;;;1.70;99.90;;;;;;4973269;28;20193;-66
2022/01/21 05:49:29;;;;;;;9.95;1.75;;;1.70;99.90;;;;;;4988626;28;20489;-66
2022/01/21 05:52:06;;;;;;;7.55;1.80;;;1.70;99.90;;;;;;4972994;28;20038;-66
2022/01/21 05:54:32;;;;;;;13.65;1.85;;;1.70;99.90;;;;;;4990131;28;20034;-66
2022/01/21 05:57:00;;;;;;;9.70;2.00;;;1.80;99.90;;;;;;4990192;28;20045;-66
2022/01/21 05:59:26;;;;;;;9.05;1.88;;;1.80;99.90;;;;;;4990211;28;20038;-65
2022/01/21 06:01:52;;;;;;;10.20;1.77;;;1.80;99.90;;;;;;4990009;28;20053;-66
2022/01/21 06:04:17;;;;;;;15.20;2.08;;;1.80;99.90;;;;;;4989963;28;20112;-66
2022/01/21 06:06:43;;;;;;;10.25;2.10;;;1.80;99.90;;;;;;4972565;28;20035;-66
2022/01/21 06:09:09;;;;;;;10.05;1.83;;;1.80;99.90;;;;;;4976206;28;20085;-65
2022/01/21 06:11:34;;;;;;;12.18;1.85;;;1.80;99.90;;;;;;4976401;28;20046;-66
2022/01/21 06:14:01;;;;;;;11.45;3.55;;;1.90;99.90;;;;;;4993116;28;20034;-66
2022/01/21 06:16:28;;;;;;;13.65;2.25;;;1.80;99.90;;;;;;4976028;28;20502;-66
2022/01/21 06:18:54;;;;;;;12.57;2.00;;;1.80;99.90;;;;;;4973866;28;20053;-63
2022/01/21 06:21:20;;;;;;;13.85;2.00;;;1.80;99.90;;;;;;4990817;28;20105;-66
2022/01/21 06:23:46;;;;;;;13.15;2.13;;;1.80;99.90;;;;;;4989074;28;20078;-66
2022/01/21 06:26:11;;;;;;;9.68;1.65;;;1.90;99.90;;;;;;4990783;28;20116;-66
2022/01/21 06:28:37;;;;;;;9.20;2.13;;;1.90;99.90;;;;;;4990596;28;20049;-65
2022/01/21 06:31:03;;;;;;;13.60;2.33;;;1.90;99.90;;;;;;4990271;28;20620;-66
2022/01/21 06:33:28;;;;;;;19.00;2.15;;;1.90;99.90;;;;;;4989395;28;20046;-65
2022/01/21 06:35:54;;;;;;;9.50;1.92;;;1.90;99.90;;;;;;4990820;28;20030;-65
2022/01/21 06:38:21;;;;;;;7.75;2.03;;;1.90;99.90;;;;;;4990700;28;20137;-66
2022/01/21 06:40:48;;;;;;;13.85;2.25;;;1.90;99.90;;;;;;4990734;28;20038;-66
2022/01/21 06:43:14;;;;;;;14.93;2.55;;;2.00;99.90;;;;;;4990115;28;20038;-64
2022/01/21 06:45:40;;;;;;;13.13;2.00;;;2.10;99.90;;;;;;4990026;28;20030;-66
2022/01/21 06:48:06;;;;;;;5.65;1.67;;;2.10;99.90;;;;;;4972724;28;20061;-66
2022/01/21 06:50:34;;;;;;;13.45;2.13;;;2.20;99.90;;;;;;4990661;28;20053;-66
2022/01/21 06:52:59;;;;;;;12.35;1.60;;;2.20;99.90;;;;;;4972867;28;20054;-66
2022/01/21 06:55:25;;;;;;;8.85;2.10;;;2.20;99.90;;;;;;4972718;28;20917;-66
2022/01/21 06:57:51;;;;;;;13.90;2.33;;;2.30;99.90;;;;;;4988919;28;20073;-66
2022/01/21 07:00:19;;;;;;;7.32;1.58;;;2.30;99.90;;;;;;4990020;28;20149;-66
2022/01/21 07:02:49;;;;;;;13.93;2.00;;;2.40;99.90;;;;;;4990359;28;20050;-67
2022/01/21 07:05:16;;;;;;;11.02;1.92;;;2.30;99.90;;;;;;4989981;28;20409;-65
2022/01/21 07:07:41;;;;;;;5.55;1.83;;;2.30;99.90;;;;;;4990281;28;20072;-65
2022/01/21 07:10:09;;;;;;;15.50;1.90;;;2.30;99.90;;;;;;4972311;28;20492;-65
2022/01/21 07:12:34;;;;;;;10.52;2.13;;;2.30;99.90;;;;;;4972351;28;20054;-63
2022/01/21 07:15:00;;;;;;;8.48;1.75;;;2.30;99.90;;;;;;4989846;28;20038;-64
2022/01/21 07:17:26;;;;;;;11.32;2.10;;;2.30;99.90;;;;;;4991257;28;20035;-65
2022/01/21 07:19:52;;;;;;;9.80;1.80;;;2.30;99.90;;;;;;4990227;28;20113;-65
2022/01/21 07:22:18;;;;;;;10.60;1.98;;;2.30;99.90;;;;;;4991706;28;20199;-65
2022/01/21 07:24:43;;;;;;;11.52;1.90;;;2.40;99.90;;;;;;4992337;28;20038;-64
2022/01/21 07:27:09;;;;;;;8.65;1.65;;;2.30;99.90;;;;;;4992327;28;20042;-65
2022/01/21 07:29:35;;;;;;;11.50;2.20;;;2.30;99.90;;;;;;4992359;28;20050;-65
2022/01/21 07:32:01;;;;;;;9.00;1.77;;;2.30;99.90;;;;;;4992682;28;20042;-64
2022/01/21 07:34:27;;;;;;;11.50;2.42;;;2.30;99.90;;;;;;4991925;28;20609;-65
2022/01/21 07:36:54;;;;;;;14.02;2.50;;;2.20;99.90;;;;;;4992150;28;20479;-64
2022/01/21 07:39:20;;;;;;;15.52;1.90;;;2.20;99.90;;;;;;4991838;28;20042;-64
2022/01/21 07:41:46;;;;;;;7.00;1.90;;;2.20;99.90;;;;;;4992107;28;20386;-63
2022/01/21 07:44:12;;;;;;;13.55;2.08;;;2.20;99.90;;;;;;4991885;28;20049;-64
2022/01/21 07:46:39;;;;;;;9.18;2.13;;;2.10;99.90;;;;;;4990716;28;20125;-64
2022/01/21 07:49:05;;;;;;;8.85;2.30;;;2.10;99.90;;;;;;4991946;28;20050;-64
2022/01/21 07:51:31;;;;;;;11.93;2.20;;;2.10;99.90;;;;;;4992026;28;20050;-64
2022/01/21 07:53:57;;;;;;;14.43;2.42;;;2.10;99.90;;;;;;4991897;28;20047;-65
2022/01/21 07:56:23;;;;;;;11.20;2.88;;;2.10;99.90;;;;;;4991715;28;20427;-65
2022/01/21 07:58:49;;;;;;;10.75;1.98;;;2.10;99.90;;;;;;4990462;28;20046;-65
2022/01/21 08:01:14;;;;;;;13.68;2.20;;;2.10;99.90;;;;;;4991910;28;20038;-64
2022/01/21 08:03:40;;;;;;;11.50;2.30;;;2.10;99.90;;;;;;4991676;28;20696;-65
2022/01/21 08:06:06;;;;;;;13.32;2.45;;;2.10;99.90;;;;;;4973733;28;20046;-64
2022/01/21 08:08:31;;;;;;;15.48;2.40;;;2.00;99.90;;;;;;4974179;28;20141;-64
2022/01/21 08:10:57;;;;;;;10.35;2.25;;;2.00;99.90;;;;;;4974058;28;20042;-64
2022/01/21 08:13:23;;;;;;;13.10;2.20;;;2.00;99.90;;;;;;4991391;28;20042;-64
2022/01/21 08:15:48;;;;;;;14.77;3.08;;;2.00;99.90;;;;;;4974095;28;20045;-65
2022/01/21 08:18:15;;;;;;;16.40;2.67;;;2.00;99.90;;;;;;4974014;28;20411;-64
2022/01/21 08:20:42;;;;;;;13.93;2.30;;;2.00;99.90;;;;;;4991435;28;20049;-65
2022/01/21 08:23:09;;;;;;;7.60;2.30;;;1.90;99.90;;;;;;4973445;28;20113;-64
2022/01/21 08:25:35;;;;;;;18.30;2.45;;;1.90;99.90;;;;;;4991023;28;20034;-65
2022/01/21 08:28:00;;;;;;;14.40;2.60;;;1.90;99.90;;;;;;4991179;28;20038;-64
2022/01/21 08:30:26;;;;;;;17.25;2.80;;;1.90;99.90;;;;;;4991300;28;20048;-65
2022/01/21 08:32:52;;;;;;;10.60;2.80;;;2.00;99.90;;;;;;4990938;28;20038;-65
2022/01/21 08:35:17;;;;;;;7.60;2.70;;;2.00;99.90;;;;;;4991294;28;20070;-65
2022/01/21 08:37:43;;;;;;;12.80;2.55;;;2.10;99.90;;;;;;4991254;28;20139;-64
2022/01/21 08:40:09;;;;;;;10.48;3.20;;;2.10;99.90;;;;;;4973067;28;20038;-64
2022/01/21 08:42:34;;;;;;;14.77;2.78;;;2.10;99.90;;;;;;4973361;28;20100;-64
2022/01/21 08:45:00;;;;;;;10.48;2.35;;;2.10;99.90;;;;;;4973622;28;20440;-64
2022/01/21 08:47:25;;;;;;;12.48;2.40;;;2.10;99.90;;;;;;4991172;28;20038;-64
2022/01/21 08:49:52;;;;;;;12.70;2.30;;;2.10;99.90;;;;;;4973426;28;20128;-64
2022/01/21 08:52:24;;;;;;;9.05;2.47;;;2.10;99.90;;;;;;4990911;28;20108;-64
2022/01/21 08:54:50;;;;;;;11.23;2.83;;;2.10;99.90;;;;;;4990721;28;20106;-64
2022/01/21 08:57:18;;;;;;;9.55;2.38;;;2.10;99.90;;;;;;4990474;28;20110;-64
2022/01/21 08:59:43;;;;;;;11.10;2.58;;;2.20;99.90;;;;;;4990905;28;20074;-65
2022/01/21 09:02:10;;;;;;;10.88;2.63;;;2.20;99.90;;;;;;4990857;28;20042;-65
2022/01/21 09:04:36;;;;;;;12.02;2.50;;;2.20;99.90;;;;;;4973022;28;20050;-64
2022/01/21 09:07:02;;;;;;;12.90;2.45;;;2.30;99.90;;;;;;4973445;28;20046;-63
2022/01/21 09:09:28;;;;;;;15.60;2.70;;;2.40;99.90;;;;;;4990362;28;20528;-62
2022/01/21 09:11:59;;;;;;;14.82;2.83;;;2.50;99.90;;;;;;4990497;28;20462;-63
2022/01/21 09:14:26;;;;;;;12.32;2.55;;;2.60;99.90;;;;;;4972835;28;20054;-64
2022/01/21 09:16:53;;;;;;;15.95;2.78;;;2.80;99.90;;;;;;4990501;28;20125;-65
2022/01/21 09:19:18;;;;;;;16.63;3.45;;;2.90;99.90;;;;;;4990482;28;20042;-64
2022/01/21 09:21:45;;;;;;;13.38;2.92;;;3.10;99.90;;;;;;4988642;28;20050;-65
2022/01/21 09:24:11;;;;;;;15.32;2.67;;;3.20;99.90;;;;;;4970325;28;20639;-64
2022/01/21 09:26:37;;;;;;;16.98;3.45;;;3.30;99.90;;;;;;4986096;28;20043;-65
2022/01/21 09:29:05;;;;;;;17.02;3.25;;;3.40;99.90;;;;;;4988317;28;20060;-64
2022/01/21 09:31:31;;;;;;;10.82;2.60;;;3.50;99.90;;;;;;4988376;28;20115;-65
2022/01/21 09:33:57;;;;;;;13.13;2.40;;;3.50;99.90;;;;;;4988393;28;20065;-66
2022/01/21 09:36:23;;;;;;;15.77;3.08;;;3.60;99.90;;;;;;4987930;28;20132;-65
2022/01/21 09:38:49;;;;;;;13.60;2.63;;;3.70;99.90;;;;;;4989823;28;20089;-65
2022/01/21 09:41:17;;;;;;;11.43;2.92;;;3.80;99.90;;;;;;4973272;28;20079;-65
2022/01/21 09:43:48;;;;;;;20.05;2.80;;;3.90;99.90;;;;;;4993292;28;20042;-64
2022/01/21 09:46:14;;;;;;;11.52;2.65;;;4.00;99.90;;;;;;4993655;28;20061;-65
2022/01/21 09:48:52;;;;;;;11.98;2.42;;;4.00;99.90;;;;;;4977011;28;20053;-65
2022/01/21 09:51:18;;;;;;;20.10;3.67;;;4.10;99.90;;;;;;4976872;28;20117;-63
2022/01/21 09:53:44;;;;;;;11.85;2.42;;;4.20;99.90;;;;;;4993898;28;20564;-64
2022/01/21 09:56:11;;;;;;;13.63;2.70;;;4.20;99.90;;;;;;4994080;28;20130;-63
2022/01/21 09:58:36;;;;;;;10.70;2.55;;;4.30;99.90;;;;;;4992842;28;20052;-64
2022/01/21 10:01:06;;;;;;;14.30;2.60;;;4.30;99.90;;;;;;4994013;28;20402;-63
2022/01/21 10:03:33;;;;;;;14.43;3.10;;;4.40;99.90;;;;;;4975627;28;20109;-64
2022/01/21 10:06:03;;;;;;;25.90;3.08;;;4.40;99.90;;;;;;4993837;28;20049;-64
2022/01/21 10:08:30;;;;;;;14.48;3.03;;;4.40;99.90;;;;;;4976283;28;20437;-64
2022/01/21 10:10:55;;;;;;;11.18;2.35;;;4.50;99.90;;;;;;4994028;28;20113;-64
2022/01/21 10:13:21;;;;;;;18.25;2.78;;;4.50;99.90;;;;;;4993820;28;20150;-64
2022/01/21 10:15:48;;;;;;;8.68;2.15;;;4.50;99.90;;;;;;4993632;28;20513;-64
2022/01/21 10:18:19;;;;;;;11.45;2.40;;;4.50;99.90;;;;;;4993020;28;20489;-64
2022/01/21 10:21:11;;;;;;;13.07;2.80;;;4.60;99.90;;;;;;4992757;28;20039;-64
2022/01/21 10:23:41;;;;;;;12.90;2.20;;;4.70;99.90;;;;;;4993375;28;20117;-65
2022/01/21 10:26:12;;;;;;;8.13;1.77;;;4.80;99.90;;;;;;4993563;28;20105;-64
2022/01/21 10:28:40;;;;;;;12.25;3.60;;;4.90;99.90;;;;;;4993322;28;20088;-64
2022/01/21 10:31:17;;;;;;;8.80;2.30;;;5.00;99.90;;;;;;4993414;28;20512;-64
2022/01/21 10:33:53;;;;;;;15.30;2.45;;;5.10;99.90;;;;;;4975533;28;20129;-64
2022/01/21 10:36:29;;;;;;;15.05;2.63;;;5.30;99.90;;;;;;4993430;28;20050;-64
2022/01/21 10:39:08;;;;;;;6.38;2.00;;;5.40;99.90;;;;;;4993077;28;20046;-64
2022/01/21 10:41:35;;;;;;;13.65;2.30;;;5.50;99.90;;;;;;4993519;28;20066;-64
2022/01/21 10:44:15;;;;;;;13.93;2.92;;;5.60;99.90;;;;;;4975985;28;20046;-64
2022/01/21 10:46:46;;;;;;;9.70;1.80;;;5.60;99.90;;;;;;4975742;28;20489;-63
2022/01/21 10:49:14;;;;;;;8.95;2.10;;;5.60;99.90;;;;;;4975124;28;20070;-63
2022/01/21 10:51:48;;;;;;;8.52;2.50;;;5.70;99.90;;;;;;4992966;28;20046;-63
2022/01/21 10:54:26;;;;;;;11.75;2.28;;;5.70;99.90;;;;;;4991975;28;20039;-63
2022/01/21 10:57:19;;;;;;;6.45;2.45;;;5.60;99.90;;;;;;4992495;28;20050;-63
2022/01/21 10:59:53;;;;;;;8.95;2.50;;;5.60;99.90;;;;;;4990022;28;20112;-62
2022/01/21 11:02:29;;;;;;;10.80;2.33;;;5.60;99.90;;;;;;4973998;28;20050;-63
2022/01/21 11:04:57;;;;;;;11.48;2.40;;;5.60;99.90;;;;;;4991588;28;20039;-65
2022/01/21 11:07:57;;;;;;;13.77;2.35;;;5.60;99.90;;;;;;5045605;22;20149;-63
2022/01/21 11:10:49;;;;;;;11.57;2.65;;;5.60;99.90;;;;;;5050424;28;20103;-63
2022/01/21 11:13:20;;;;;;;;;;;5.60;99.90;;;;;;5051664;28;20044;-63
2022/01/21 11:15:48;;;;;;;13.85;2.63;;;5.70;99.90;;;;;;5032030;28;19917;-62
2022/01/21 11:18:17;;;;;;;13.07;2.30;;;5.70;99.90;;;;;;5032058;28;20053;-62
2022/01/21 11:20:47;;;;;;;14.98;2.60;;;5.70;99.90;;;;;;5032003;28;20113;-62
2022/01/21 11:23:13;;;;;;;18.73;3.08;;;5.70;99.90;;;;;;5014277;28;20041;-62
2022/01/21 11:25:43;;;;;;;11.43;2.42;;;5.70;99.90;;;;;;5031731;28;20470;-62
2022/01/21 11:28:13;;;;;;;17.20;2.90;;;5.70;99.90;;;;;;5031830;28;20033;-62
2022/01/21 11:30:40;;;;;;;17.05;3.20;;;5.70;99.90;;;;;;5031901;28;20081;-62
2022/01/21 11:33:05;;;;;;;19.10;3.30;;;5.60;99.90;;;;;;5031367;28;20506;-62
2022/01/21 11:35:31;;;;;;;16.80;3.25;;;5.70;99.90;;;;;;5044449;28;20029;-61
2022/01/21 11:37:58;;;;;;;16.52;2.67;;;5.70;99.90;;;;;;5051423;28;20041;-62
2022/01/21 11:40:24;;;;;;;20.95;7.18;;;5.80;99.90;;;;;;5051622;28;20132;-62
2022/01/21 11:42:51;;;;;;;18.02;4.15;;;5.90;99.90;;;;;;5044549;28;20041;-61
2022/01/21 11:48:49;;;;;;;19.17;3.53;;;6.00;99.90;;;;;;5013744;28;20049;-61
2022/01/21 11:50:49;;;;;;;20.95;3.47;;;6.00;99.90;;;;;;5017970;28;20482;-61
2022/01/21 11:53:15;;;;;;;19.10;3.95;;;6.10;99.90;;;;;;5031217;28;20087;-62
2022/01/21 11:55:48;;;;;;;22.58;4.40;;;6.10;99.90;;;;;;5031060;28;20048;-61
2022/01/21 11:58:19;;;;;;;24.10;3.90;;;6.10;99.90;;;;;;5012324;28;20041;-62
2022/01/21 12:00:49;;;;;;;22.13;4.05;;;6.10;99.90;;;;;;5030886;28;20037;-62
2022/01/21 12:03:17;;;;;;;21.42;3.88;;;6.30;99.90;;;;;;5029879;28;20072;-61
2022/01/21 12:05:43;;;;;;;25.10;4.38;;;6.30;99.90;;;;;;5040743;28;20180;-62
2022/01/21 12:08:09;;;;;;;15.82;3.70;;;6.50;99.90;;;;;;5051053;28;20068;-62
2022/01/21 12:10:43;;;;;;;10.88;3.65;;;6.60;99.90;;;;;;5050667;28;20036;-62
2022/01/21 12:13:15;;;;;;;13.57;2.67;;;6.70;99.90;;;;;;5051319;28;20391;-62
2022/01/21 12:21:05;;;;;;;13.13;2.80;;;6.80;99.90;;;;;;5048949;28;20077;-63
2022/01/21 12:23:43;;;;;;;18.00;3.05;;;6.80;99.90;;;;;;5050458;28;20036;-63
2022/01/21 12:26:14;;;;;;;13.32;3.28;;;6.80;99.90;;;;;;5050771;28;20518;-63
2022/01/21 12:28:44;;;;;;;;;;;6.90;99.90;;;;;;5050970;28;20048;-62
2022/01/21 12:31:12;;;;;;;10.57;3.08;;;6.90;99.90;;;;;;5050504;28;19917;-63
2022/01/21 12:34:32;;;;;;;16.25;2.85;;;6.90;99.90;;;;;;5050434;28;20067;-62
2022/01/21 12:36:53;;;;;;;11.52;2.58;;;7.00;99.90;;;;;;5029846;28;20057;-63
2022/01/21 12:39:45;;;;;;;11.90;2.08;;;7.00;99.90;;;;;;5031511;28;20029;-62
2022/01/21 12:42:20;;;;;;;14.40;2.45;;;7.00;99.90;;;;;;5030639;28;20069;-62
2022/01/21 12:44:49;;;;;;;10.52;2.30;;;7.10;99.90;;;;;;5030254;28;20038;-62
2022/01/21 12:47:46;;;;;;;12.93;3.00;;;7.10;99.90;;;;;;5030737;28;20045;-62
2022/01/21 12:50:32;;;;;;;15.85;2.80;;;7.10;99.90;;;;;;5032805;28;20114;-62
2022/01/21 12:58:19;;;;;;;9.02;2.85;;;7.30;99.90;;;;;;5030196;28;20111;-63
2022/01/21 13:00:45;;;;;;;8.75;3.08;;;7.30;99.90;;;;;;5029528;28;20057;-62
2022/01/21 13:03:23;;;;;;;12.65;2.50;;;7.30;99.90;;;;;;5045428;28;20033;-62
2022/01/21 13:06:14;;;;;;;12.73;2.58;;;7.30;99.90;;;;;;5049979;28;20041;-62
2022/01/21 13:08:52;;;;;;;9.68;2.10;;;7.30;99.90;;;;;;5050178;28;20052;-62
2022/01/21 13:11:24;;;;;;;14.00;2.53;;;7.30;99.90;;;;;;5048225;28;20433;-62
2022/01/21 13:14:12;;;;;;;7.78;2.00;;;7.30;99.90;;;;;;5049710;28;20097;-62
2022/01/21 13:16:40;;;;;;;7.70;2.00;;;7.30;99.90;;;;;;5049632;28;20051;-61
2022/01/21 13:19:06;;;;;;;10.68;2.30;;;7.20;99.90;;;;;;5049637;28;20043;-63
2022/01/21 13:21:35;;;;;;;9.90;2.03;;;7.30;99.90;;;;;;5049471;28;20457;-63
2022/01/21 13:24:10;;;;;;;7.00;1.40;;;7.30;99.90;;;;;;5049704;28;20072;-63
2022/01/21 13:26:38;;;;;;;9.88;2.03;;;7.20;99.90;;;;;;5049667;28;20487;-63
2022/01/21 13:29:11;;;;;;;14.45;2.63;;;7.20;99.90;;;;;;5048160;28;20446;-63
2022/01/21 13:31:46;;;;;;;13.00;2.05;;;7.20;99.90;;;;;;5049683;28;20047;-62
2022/01/21 13:34:14;;;;;;;18.13;4.05;;;7.30;99.90;;;;;;5049486;28;20510;-62
2022/01/21 13:36:50;;;;;;;10.55;2.67;;;7.30;99.90;;;;;;5049455;28;20090;-62
2022/01/21 13:39:21;;;;;;;11.27;2.15;;;7.20;99.90;;;;;;5049375;28;20477;-62
2022/01/21 13:41:50;;;;;;;11.10;2.13;;;7.20;99.90;;;;;;5049582;28;20041;-62
2022/01/21 13:44:41;;;;;;;4.82;2.13;;;7.30;99.90;;;;;;5047484;28;20073;-62
2022/01/21 13:47:31;;;;;;;13.05;2.35;;;7.30;99.90;;;;;;5049504;28;20033;-62
2022/01/21 13:50:04;;;;;;;10.43;2.22;;;7.30;99.90;;;;;;5049604;28;20564;-62
2022/01/21 13:52:45;;;;;;;9.90;2.13;;;7.30;99.90;;;;;;5049004;28;20045;-62
2022/01/21 13:55:24;;;;;;;17.13;4.80;;;7.30;99.90;;;;;;5031584;28;20057;-61
2022/01/21 13:57:50;;;;;;;13.15;2.22;;;7.40;99.90;;;;;;5029132;28;20404;-62